createdAt,value
2022-07-28T00:02:21.651Z,101696.59
2022-07-28T00:04:48.500Z,101734.50
2022-07-28T00:07:15.096Z,101732.84
2022-07-28T00:09:41.789Z,101730.34
2022-07-28T00:12:08.704Z,101703.66
2022-07-28T00:14:35.320Z,101727.97
2022-07-28T00:17:01.920Z,101705.44
2022-07-28T00:19:28.619Z,101715.03
2022-07-28T00:21:55.314Z,101698.78
2022-07-28T00:24:23.518Z,101683.50
2022-07-28T00:26:50.589Z,101716.22
2022-07-28T00:29:17.657Z,101698.19
2022-07-28T00:31:44.460Z,101717.25
2022-07-28T00:34:12.353Z,101700.00
2022-07-28T00:36:39.257Z,101706.91
2022-07-28T00:39:05.910Z,101712.13
2022-07-28T00:41:32.872Z,101690.66
2022-07-28T00:43:59.486Z,101687.31
2022-07-28T00:46:26.156Z,101696.00
2022-07-28T00:48:55.068Z,101708.97
2022-07-28T00:51:24.509Z,101697.75
2022-07-28T00:53:52.740Z,101702.16
2022-07-28T00:56:20.695Z,101704.72
2022-07-28T00:58:48.297Z,101696.09
2022-07-28T01:01:19.620Z,101699.53
2022-07-28T01:03:55.353Z,101689.22
2022-07-28T01:07:00.299Z,101698.72
2022-07-28T01:09:35.848Z,101700.44
2022-07-28T01:12:35.882Z,101691.84
2022-07-28T01:15:38.046Z,101696.19
2022-07-28T01:18:21.228Z,101682.34
2022-07-28T01:20:54.403Z,101687.50
2022-07-28T01:23:46.658Z,101658.25
2022-07-28T01:26:37.160Z,101672.94
2022-07-28T01:29:20.560Z,101680.63
2022-07-28T01:32:08.468Z,101684.13
2022-07-28T01:34:52.296Z,101665.97
2022-07-28T01:37:25.868Z,101661.88
2022-07-28T01:40:03.123Z,101660.16
2022-07-28T01:42:37.315Z,101675.56
2022-07-28T01:45:05.362Z,101663.50
2022-07-28T01:47:34.162Z,101672.88
2022-07-28T01:50:06.570Z,101654.84
2022-07-28T01:52:35.031Z,101639.19
2022-07-28T01:55:02.894Z,101627.28
2022-07-28T01:57:32.058Z,101668.66
2022-07-28T02:00:00.969Z,101647.19
2022-07-28T02:02:30.034Z,101646.38
2022-07-28T02:04:58.984Z,101632.63
2022-07-28T02:07:27.595Z,101659.28
2022-07-28T02:09:56.641Z,101655.19
2022-07-28T02:12:25.945Z,101650.00
2022-07-28T02:14:54.865Z,101633.66
2022-07-28T02:17:30.682Z,101644.84
2022-07-28T02:19:58.423Z,101637.97
2022-07-28T02:22:27.238Z,101633.72
2022-07-28T02:24:56.079Z,101655.38
2022-07-28T02:27:33.176Z,101649.31
2022-07-28T02:30:03.439Z,101633.00
2022-07-28T02:32:36.809Z,101648.56
2022-07-28T02:35:09.478Z,101633.16
2022-07-28T02:37:40.050Z,101646.94
2022-07-28T02:40:12.247Z,101646.94
2022-07-28T02:42:40.586Z,101649.63
2022-07-28T02:45:10.067Z,101613.28
2022-07-28T02:47:44.143Z,101646.19
2022-07-28T02:50:12.711Z,101619.38
2022-07-28T02:52:41.828Z,101615.84
2022-07-28T02:55:10.709Z,101634.88
2022-07-28T02:57:41.487Z,101613.34
2022-07-28T03:00:09.014Z,101636.72
2022-07-28T03:02:36.971Z,101593.63
2022-07-28T03:05:07.674Z,101637.63
2022-07-28T03:07:42.472Z,101596.22
2022-07-28T03:10:33.442Z,101626.41
2022-07-28T03:13:01.746Z,101634.88
2022-07-28T03:15:28.484Z,101617.72
2022-07-28T03:17:55.102Z,101615.06
2022-07-28T03:20:21.873Z,101608.22
2022-07-28T03:22:48.531Z,101625.34
2022-07-28T03:25:35.184Z,101612.47
2022-07-28T03:28:06.314Z,101624.38
2022-07-28T03:30:40.735Z,101606.25
2022-07-28T03:33:07.894Z,101622.66
2022-07-28T03:35:39.196Z,101631.41
2022-07-28T03:38:14.483Z,101617.47
2022-07-28T03:40:47.210Z,101631.41
2022-07-28T03:43:16.739Z,101612.31
2022-07-28T03:45:46.773Z,101607.97
2022-07-28T03:48:14.281Z,101619.97
2022-07-28T03:50:40.880Z,101626.88
2022-07-28T03:53:17.057Z,101600.09
2022-07-28T03:55:43.720Z,101628.59
2022-07-28T03:58:10.429Z,101619.91
2022-07-28T04:00:37.242Z,101619.03
2022-07-28T04:03:03.922Z,101610.34
2022-07-28T04:05:48.791Z,101616.38
2022-07-28T04:08:15.611Z,101614.56
2022-07-28T04:10:42.234Z,101615.41
2022-07-28T04:13:09.038Z,101616.25
2022-07-28T04:15:35.579Z,101603.31
2022-07-28T04:18:02.342Z,101616.38
2022-07-28T04:20:28.939Z,101601.72
2022-07-28T04:22:56.279Z,101595.59
2022-07-28T04:25:25.342Z,101610.25
2022-07-28T04:27:51.873Z,101611.88
2022-07-28T04:30:27.932Z,101618.88
2022-07-28T04:32:56.288Z,101611.06
2022-07-28T04:35:27.486Z,101621.47
2022-07-28T04:37:58.680Z,101616.22
2022-07-28T04:40:26.573Z,101584.25
2022-07-28T04:42:53.221Z,101618.84
2022-07-28T04:45:20.175Z,101606.91
2022-07-28T04:47:46.717Z,101617.97
2022-07-28T04:50:16.054Z,101576.50
2022-07-28T04:52:42.848Z,101587.78
2022-07-28T04:55:09.536Z,101600.63
2022-07-28T04:57:36.443Z,101613.69
2022-07-28T05:00:05.042Z,101602.19
2022-07-28T05:02:31.659Z,101618.75
2022-07-28T05:04:58.491Z,101615.13
2022-07-28T05:07:25.138Z,101608.19
2022-07-28T05:09:51.813Z,101594.50
2022-07-28T05:12:18.349Z,101604.59
2022-07-28T05:14:44.960Z,101614.03
2022-07-28T05:17:11.566Z,101611.31
2022-07-28T05:19:40.181Z,101602.63
2022-07-28T05:22:06.778Z,101603.38
2022-07-28T05:24:33.265Z,101624.75
2022-07-28T05:26:59.780Z,101608.91
2022-07-28T05:29:26.453Z,101597.44
2022-07-28T05:32:16.131Z,101629.16
2022-07-28T05:34:44.351Z,101601.25
2022-07-28T05:37:11.022Z,101612.22
2022-07-28T05:39:37.755Z,101595.69
2022-07-28T05:42:04.642Z,101609.22
2022-07-28T05:44:37.267Z,101609.88
2022-07-28T05:47:04.734Z,101627.66
2022-07-28T05:49:31.753Z,101604.22
2022-07-28T05:51:58.273Z,101615.06
2022-07-28T05:54:25.132Z,101611.44
2022-07-28T05:56:52.830Z,101610.44
2022-07-28T05:59:19.483Z,101613.56
2022-07-28T06:01:46.778Z,101615.88
2022-07-28T06:04:29.451Z,101610.53
2022-07-28T06:06:56.591Z,101608.53
2022-07-28T06:09:24.337Z,101613.78
2022-07-28T06:11:51.059Z,101602.31
2022-07-28T06:14:19.035Z,101596.13
2022-07-28T06:16:50.999Z,101618.25
2022-07-28T06:19:19.276Z,101590.50
2022-07-28T06:21:46.094Z,101606.56
2022-07-28T06:24:12.975Z,101612.25
2022-07-28T06:26:44.286Z,101618.16
2022-07-28T06:29:11.901Z,101594.66
2022-07-28T06:31:39.004Z,101596.25
2022-07-28T06:34:05.733Z,101626.94
2022-07-28T06:36:32.629Z,101607.56
2022-07-28T06:38:59.199Z,101621.09
2022-07-28T06:41:25.833Z,101599.34
2022-07-28T06:43:52.436Z,101622.13
2022-07-28T06:46:19.612Z,101615.03
2022-07-28T06:48:46.629Z,101611.47
2022-07-28T06:51:15.046Z,101610.34
2022-07-28T06:53:41.765Z,101605.88
2022-07-28T06:56:13.696Z,101607.41
2022-07-28T06:58:42.387Z,101597.63
2022-07-28T07:01:14.914Z,101611.53
2022-07-28T07:03:42.463Z,101617.28
2022-07-28T07:06:10.863Z,101608.63
2022-07-28T07:08:38.175Z,101584.72
2022-07-28T07:11:04.811Z,101612.25
2022-07-28T07:13:32.333Z,101588.41
2022-07-28T07:15:59.151Z,101609.31
2022-07-28T07:18:26.092Z,101602.44
2022-07-28T07:20:54.595Z,101569.34
2022-07-28T07:23:21.440Z,101595.81
2022-07-28T07:25:48.029Z,101586.16
2022-07-28T07:28:14.694Z,101589.94
2022-07-28T07:30:41.228Z,101601.00
2022-07-28T07:33:09.718Z,101593.72
2022-07-28T07:35:38.182Z,101587.41
2022-07-28T07:38:04.884Z,101598.00
2022-07-28T07:40:32.088Z,101614.56
2022-07-28T07:42:58.761Z,101610.63
2022-07-28T07:45:25.388Z,101594.75
2022-07-28T07:47:51.983Z,101601.81
2022-07-28T07:50:18.673Z,101594.50
2022-07-28T07:52:45.250Z,101611.41
2022-07-28T07:55:11.785Z,101599.53
2022-07-28T07:57:38.261Z,101592.94
2022-07-28T08:00:05.455Z,101610.41
2022-07-28T08:02:32.009Z,101597.75
2022-07-28T08:04:58.791Z,101590.47
2022-07-28T08:07:25.419Z,101602.63
2022-07-28T08:09:52.414Z,101596.16
2022-07-28T08:12:25.270Z,101605.91
2022-07-28T08:14:52.474Z,101604.88
2022-07-28T08:17:22.215Z,101603.06
2022-07-28T08:19:52.167Z,101576.03
2022-07-28T08:22:18.784Z,101608.72
2022-07-28T08:24:45.458Z,101597.81
2022-07-28T08:27:12.002Z,101567.34
2022-07-28T08:29:38.737Z,101601.00
2022-07-28T08:32:05.641Z,101608.69
2022-07-28T08:34:33.598Z,101592.75
2022-07-28T08:37:02.257Z,101603.69
2022-07-28T08:39:29.468Z,101587.34
2022-07-28T08:42:07.201Z,101601.44
2022-07-28T08:44:45.903Z,101611.19
2022-07-28T08:47:13.304Z,101605.66
2022-07-28T08:49:42.705Z,101596.56
2022-07-28T08:52:13.747Z,101592.19
2022-07-28T08:54:48.821Z,101575.09
2022-07-28T08:57:40.504Z,101589.72
2022-07-28T09:00:10.858Z,101596.91
2022-07-28T09:02:41.379Z,101602.25
2022-07-28T09:05:09.128Z,101586.50
2022-07-28T09:07:41.561Z,101592.16
2022-07-28T09:10:09.286Z,101596.88
2022-07-28T09:12:36.645Z,101564.16
2022-07-28T09:15:08.398Z,101590.13
2022-07-28T09:17:35.167Z,101556.44
2022-07-28T09:20:03.464Z,101595.66
2022-07-28T09:22:36.067Z,101595.41
2022-07-28T09:25:04.281Z,101574.56
2022-07-28T09:27:52.000Z,101589.72
2022-07-28T09:30:31.587Z,101574.81
2022-07-28T09:33:43.168Z,101587.41
2022-07-28T09:36:15.846Z,101584.44
2022-07-28T09:38:42.537Z,101589.53
2022-07-28T09:41:09.258Z,101580.78
2022-07-28T09:43:37.987Z,101577.22
2022-07-28T09:46:06.445Z,101551.94
2022-07-28T09:48:33.508Z,101563.84
2022-07-28T09:51:13.112Z,101571.22
2022-07-28T09:53:39.765Z,101570.66
2022-07-28T09:56:07.317Z,101553.38
2022-07-28T09:58:34.208Z,101564.19
2022-07-28T10:01:05.425Z,101532.84
2022-07-28T10:03:35.248Z,101567.91
2022-07-28T10:06:08.228Z,101558.72
2022-07-28T10:08:49.003Z,101568.31
2022-07-28T10:11:17.949Z,101546.81
2022-07-28T10:14:04.665Z,101568.09
2022-07-28T10:16:36.594Z,101556.16
2022-07-28T10:19:05.611Z,101565.94
2022-07-28T10:21:35.855Z,101555.28
2022-07-28T10:24:06.973Z,101564.97
2022-07-28T10:26:45.450Z,101548.81
2022-07-28T10:29:20.996Z,101568.72
2022-07-28T10:32:13.726Z,101563.25
2022-07-28T10:34:54.126Z,101556.53
2022-07-28T10:37:25.568Z,101561.47
2022-07-28T10:40:05.254Z,101557.31
2022-07-28T10:42:36.345Z,101556.09
2022-07-28T10:45:04.691Z,101551.22
2022-07-28T10:47:32.542Z,101552.47
2022-07-28T10:50:04.424Z,101548.59
2022-07-28T10:52:50.136Z,101549.09
2022-07-28T10:55:21.483Z,101557.78
2022-07-28T10:58:34.083Z,101550.22
2022-07-28T11:01:05.942Z,101544.97
2022-07-28T11:03:42.926Z,101543.47
2022-07-28T11:06:34.613Z,101543.78
2022-07-28T11:09:16.531Z,101539.84
2022-07-28T11:11:47.389Z,101553.69
2022-07-28T11:14:22.832Z,101550.63
2022-07-28T11:17:11.563Z,101543.59
2022-07-28T11:19:55.883Z,101552.69
2022-07-28T11:22:34.074Z,101546.44
2022-07-28T11:25:19.545Z,101553.28
2022-07-28T11:27:51.549Z,101541.50
2022-07-28T11:30:28.807Z,101533.53
2022-07-28T11:32:55.459Z,101538.50
2022-07-28T11:35:48.647Z,101549.25
2022-07-28T11:38:15.412Z,101547.56
2022-07-28T11:40:43.634Z,101548.16
2022-07-28T11:43:35.414Z,101547.03
2022-07-28T11:46:11.160Z,101535.84
2022-07-28T11:48:40.656Z,101524.41
2022-07-28T11:51:07.269Z,101530.03
2022-07-28T11:53:40.959Z,101526.53
2022-07-28T11:56:31.647Z,101518.78
2022-07-28T11:59:03.395Z,101512.53
2022-07-28T12:01:36.863Z,101522.09
2022-07-28T12:04:12.228Z,101509.34
2022-07-28T12:06:42.587Z,101507.78
2022-07-28T12:09:10.591Z,101524.59
2022-07-28T12:11:41.192Z,101507.34
2022-07-28T12:14:14.238Z,101518.66
2022-07-28T12:16:43.881Z,101520.66
2022-07-28T12:19:11.966Z,101504.25
2022-07-28T12:21:48.051Z,101521.91
2022-07-28T12:24:27.986Z,101516.97
2022-07-28T12:26:55.708Z,101496.59
2022-07-28T12:29:23.999Z,101472.56
2022-07-28T12:31:55.738Z,101511.88
2022-07-28T12:34:28.770Z,101504.06
2022-07-28T12:36:57.962Z,101470.88
2022-07-28T12:39:25.968Z,101494.06
2022-07-28T12:42:10.237Z,101468.63
2022-07-28T12:44:46.950Z,101494.38
2022-07-28T12:47:15.417Z,101469.53
2022-07-28T12:49:43.707Z,101493.13
2022-07-28T12:52:25.854Z,101488.91
2022-07-28T12:54:55.437Z,101494.97
2022-07-28T12:57:50.560Z,101491.00
2022-07-28T13:00:20.656Z,101477.72
2022-07-28T13:02:48.778Z,101479.94
2022-07-28T13:05:57.446Z,101474.09
2022-07-28T13:08:25.439Z,101473.09
2022-07-28T13:10:57.468Z,101485.41
2022-07-28T13:13:26.657Z,101472.25
2022-07-28T13:16:19.555Z,101472.53
2022-07-28T13:18:51.878Z,101463.88
2022-07-28T13:21:57.216Z,101476.16
2022-07-28T13:24:27.521Z,101471.09
2022-07-28T13:26:54.224Z,101471.66
2022-07-28T13:29:20.909Z,101454.16
2022-07-28T13:31:47.527Z,101450.47
2022-07-28T13:34:14.839Z,101471.31
2022-07-28T13:36:41.789Z,101476.53
2022-07-28T13:39:10.807Z,101449.09
2022-07-28T13:41:48.476Z,101467.78
2022-07-28T13:44:24.360Z,101474.13
2022-07-28T13:46:51.697Z,101439.19
2022-07-28T13:49:21.458Z,101468.16
2022-07-28T13:51:48.773Z,101468.53
2022-07-28T13:54:19.235Z,101451.75
2022-07-28T13:56:47.059Z,101479.69
2022-07-28T13:59:16.642Z,101472.38
2022-07-28T14:01:43.307Z,101434.81
2022-07-28T14:04:16.684Z,101470.63
2022-07-28T14:06:45.199Z,101466.91
2022-07-28T14:09:12.949Z,101473.56
2022-07-28T14:11:49.340Z,101483.50
2022-07-28T14:14:17.758Z,101462.91
2022-07-28T14:16:47.855Z,101450.31
2022-07-28T14:19:16.475Z,101463.72
2022-07-28T14:21:50.353Z,101471.38
2022-07-28T14:24:17.679Z,101468.75
2022-07-28T14:26:44.606Z,101476.06
2022-07-28T14:29:11.762Z,101462.06
2022-07-28T14:31:38.565Z,101477.25
2022-07-28T14:34:05.206Z,101461.53
2022-07-28T14:36:31.796Z,101461.06
2022-07-28T14:38:58.367Z,101477.38
2022-07-28T14:41:25.963Z,101483.34
2022-07-28T14:43:52.988Z,101479.25
2022-07-28T14:46:21.617Z,101476.78
2022-07-28T14:48:48.883Z,101467.16
2022-07-28T14:51:15.558Z,101472.81
2022-07-28T14:53:45.279Z,101452.44
2022-07-28T14:56:18.176Z,101460.59
2022-07-28T14:58:44.842Z,101456.81
2022-07-28T15:01:11.471Z,101472.94
2022-07-28T15:03:38.186Z,101468.97
2022-07-28T15:06:10.158Z,101479.28
2022-07-28T15:08:36.953Z,101474.53
2022-07-28T15:11:03.494Z,101477.22
2022-07-28T15:13:29.986Z,101435.72
2022-07-28T15:15:57.147Z,101465.06
2022-07-28T15:18:24.488Z,101465.47
2022-07-28T15:20:51.384Z,101458.56
2022-07-28T15:23:18.539Z,101479.47
2022-07-28T15:25:46.940Z,101451.25
2022-07-28T15:28:14.179Z,101441.03
2022-07-28T15:30:51.255Z,101477.03
2022-07-28T15:33:20.639Z,101474.91
2022-07-28T15:35:58.733Z,101469.75
2022-07-28T15:38:28.584Z,101466.13
2022-07-28T15:40:58.587Z,101475.38
2022-07-28T15:43:25.124Z,101443.31
2022-07-28T15:45:54.303Z,101445.69
2022-07-28T15:48:22.604Z,101470.16
2022-07-28T15:50:49.120Z,101466.69
2022-07-28T15:53:16.835Z,101467.91
2022-07-28T15:55:47.554Z,101468.78
2022-07-28T15:58:17.402Z,101450.84
2022-07-28T16:00:44.465Z,101471.81
2022-07-28T16:03:11.534Z,101442.97
2022-07-28T16:05:38.178Z,101457.34
2022-07-28T16:08:04.966Z,101446.50
2022-07-28T16:10:31.583Z,101482.00
2022-07-28T16:12:58.103Z,101486.91
2022-07-28T16:15:27.573Z,101484.03
2022-07-28T16:17:54.895Z,101496.56
2022-07-28T16:20:22.142Z,101474.59
2022-07-28T16:22:48.695Z,101456.81
2022-07-28T16:25:20.450Z,101502.31
2022-07-28T16:27:48.461Z,101500.84
2022-07-28T16:30:15.783Z,101494.41
2022-07-28T16:32:42.866Z,101505.28
2022-07-28T16:35:09.890Z,101493.34
2022-07-28T16:37:38.729Z,101497.81
2022-07-28T16:40:06.161Z,101499.63
2022-07-28T16:42:32.719Z,101505.47
2022-07-28T16:44:59.438Z,101498.19
2022-07-28T16:47:25.954Z,101486.53
2022-07-28T16:49:52.610Z,101500.50
2022-07-28T16:52:19.571Z,101499.22
2022-07-28T16:54:46.308Z,101508.56
2022-07-28T16:57:14.834Z,101498.72
2022-07-28T16:59:48.819Z,101507.16
2022-07-28T17:02:16.617Z,101494.94
2022-07-28T17:04:43.305Z,101512.41
2022-07-28T17:07:09.948Z,101503.88
2022-07-28T17:09:36.426Z,101495.75
2022-07-28T17:12:03.211Z,101499.16
2022-07-28T17:14:29.737Z,101477.56
2022-07-28T17:16:56.251Z,101505.25
2022-07-28T17:19:22.769Z,101513.97
2022-07-28T17:21:49.259Z,101474.72
2022-07-28T17:24:16.310Z,101504.59
2022-07-28T17:27:35.124Z,101511.50
2022-07-28T17:29:29.935Z,101517.03
2022-07-28T17:31:56.953Z,101521.09
2022-07-28T17:34:23.993Z,101525.94
2022-07-28T17:36:50.918Z,101523.75
2022-07-28T17:39:17.519Z,101500.88
2022-07-28T17:41:44.034Z,101519.38
2022-07-28T17:44:10.738Z,101519.09
2022-07-28T17:46:37.900Z,101528.75
2022-07-28T17:49:05.718Z,101519.25
2022-07-28T17:51:32.591Z,101517.91
2022-07-28T17:53:59.309Z,101492.88
2022-07-28T17:56:26.507Z,101513.91
2022-07-28T17:58:53.065Z,101527.06
2022-07-28T18:01:19.658Z,101519.56
2022-07-28T18:03:56.703Z,101530.03
2022-07-28T18:06:30.839Z,101523.53
2022-07-28T18:09:05.394Z,101538.50
2022-07-28T18:11:36.056Z,101524.09
2022-07-28T18:14:05.416Z,101531.50
2022-07-28T18:16:35.363Z,101525.00
2022-07-28T18:19:05.052Z,101525.38
2022-07-28T18:21:31.537Z,101516.50
2022-07-28T18:23:59.318Z,101499.84
2022-07-28T18:26:25.838Z,101538.06
2022-07-28T18:28:52.465Z,101539.19
2022-07-28T18:31:19.310Z,101540.88
2022-07-28T18:33:45.879Z,101543.97
2022-07-28T18:36:12.545Z,101545.94
2022-07-28T18:38:39.214Z,101556.38
2022-07-28T18:41:05.779Z,101533.34
2022-07-28T18:43:32.440Z,101552.34
2022-07-28T18:45:58.957Z,101551.84
2022-07-28T18:48:25.712Z,101530.56
2022-07-28T18:50:52.692Z,101550.53
2022-07-28T18:53:19.400Z,101550.72
2022-07-28T18:55:46.043Z,101551.66
2022-07-28T18:58:12.564Z,101555.44
2022-07-28T19:00:39.107Z,101554.84
2022-07-28T19:03:06.355Z,101556.97
2022-07-28T19:05:36.889Z,101554.50
2022-07-28T19:08:04.955Z,101564.22
2022-07-28T19:10:32.325Z,101553.44
2022-07-28T19:12:59.209Z,101550.06
2022-07-28T19:15:25.872Z,101540.69
2022-07-28T19:18:10.517Z,101561.47
2022-07-28T19:20:39.700Z,101579.16
2022-07-28T19:23:06.445Z,101555.31
2022-07-28T19:25:35.554Z,101575.97
2022-07-28T19:28:02.372Z,101546.16
2022-07-28T19:30:30.719Z,101567.00
2022-07-28T19:32:57.847Z,101551.69
2022-07-28T19:35:24.523Z,101561.19
2022-07-28T19:37:51.094Z,101584.63
2022-07-28T19:40:18.035Z,101579.38
2022-07-28T19:42:45.021Z,101576.19
2022-07-28T19:45:11.691Z,101581.19
2022-07-28T19:47:39.141Z,101588.44
2022-07-28T19:50:06.297Z,101567.97
2022-07-28T19:52:33.613Z,101551.91
2022-07-28T19:55:01.143Z,101596.69
2022-07-28T19:57:30.748Z,101597.56
2022-07-28T19:59:57.268Z,101596.91
2022-07-28T20:02:23.996Z,101605.81
2022-07-28T20:04:50.702Z,101596.53
2022-07-28T20:07:17.743Z,101578.75
2022-07-28T20:09:44.515Z,101605.59
2022-07-28T20:12:11.339Z,101614.22
2022-07-28T20:14:37.895Z,101583.41
2022-07-28T20:17:04.587Z,101582.69
2022-07-28T20:19:31.260Z,101587.13
2022-07-28T20:21:57.825Z,101574.84
2022-07-28T20:24:24.521Z,101603.38
2022-07-28T20:26:51.161Z,101616.25
2022-07-28T20:29:18.150Z,101598.38
2022-07-28T20:31:44.688Z,101612.25
2022-07-28T20:34:12.959Z,101619.41
2022-07-28T20:36:39.748Z,101594.56
2022-07-28T20:39:27.533Z,101573.44
2022-07-28T20:41:52.999Z,101618.31
2022-07-28T20:44:28.706Z,101606.59
2022-07-28T20:46:58.449Z,101637.03
2022-07-28T20:49:25.161Z,101615.75
2022-07-28T20:51:51.877Z,101626.88
2022-07-28T20:54:18.971Z,101634.81
2022-07-28T20:56:45.663Z,101620.53
2022-07-28T20:59:12.293Z,101614.09
2022-07-28T21:01:39.894Z,101624.44
2022-07-28T21:04:06.821Z,101643.69
2022-07-28T21:06:38.129Z,101629.97
2022-07-28T21:09:05.279Z,101631.13
2022-07-28T21:11:35.182Z,101634.72
2022-07-28T21:14:02.158Z,101640.31
2022-07-28T21:16:28.876Z,101636.97
2022-07-28T21:18:55.732Z,101631.97
2022-07-28T21:21:22.288Z,101611.53
2022-07-28T21:23:49.651Z,101635.53
2022-07-28T21:26:17.032Z,101648.56
2022-07-28T21:29:02.286Z,101622.34
2022-07-28T21:31:28.940Z,101637.78
2022-07-28T21:33:55.626Z,101651.81
2022-07-28T21:36:22.936Z,101641.63
2022-07-28T21:38:49.727Z,101640.91
2022-07-28T21:41:18.658Z,101642.81
2022-07-28T21:43:45.336Z,101647.31
2022-07-28T21:46:12.100Z,101623.28
2022-07-28T21:48:38.970Z,101656.88
2022-07-28T21:51:16.347Z,101631.47
2022-07-28T21:53:46.862Z,101629.84
2022-07-28T21:56:13.986Z,101669.38
2022-07-28T21:58:41.954Z,101647.84
2022-07-28T22:01:08.885Z,101669.50
2022-07-28T22:03:39.540Z,101667.97
2022-07-28T22:06:06.394Z,101649.16
2022-07-28T22:08:33.832Z,101634.63
2022-07-28T22:11:00.969Z,101651.13
2022-07-28T22:13:28.247Z,101655.63
2022-07-28T22:15:55.237Z,101659.16
2022-07-28T22:18:21.861Z,101653.19
2022-07-28T22:20:48.445Z,101663.81
2022-07-28T22:23:28.766Z,101681.88
2022-07-28T22:25:56.546Z,101691.69
2022-07-28T22:28:29.921Z,101682.31
2022-07-28T22:30:57.456Z,101685.22
2022-07-28T22:33:24.114Z,101679.31
2022-07-28T22:35:51.399Z,101691.44
2022-07-28T22:38:18.361Z,101676.25
2022-07-28T22:40:45.336Z,101696.03
2022-07-28T22:43:12.027Z,101673.84
2022-07-28T22:45:50.894Z,101680.06
2022-07-28T22:48:18.447Z,101661.28
2022-07-28T22:50:45.305Z,101700.06
2022-07-28T22:53:11.977Z,101683.97
2022-07-28T22:55:39.817Z,101697.72
2022-07-28T22:58:06.545Z,101684.22
2022-07-28T23:00:36.257Z,101648.97
2022-07-28T23:03:04.565Z,101682.63
2022-07-28T23:05:32.243Z,101690.47
2022-07-28T23:07:59.198Z,101669.22
2022-07-28T23:10:26.379Z,101664.22
2022-07-28T23:12:57.294Z,101689.22
2022-07-28T23:15:40.425Z,101673.13
2022-07-28T23:18:11.150Z,101687.88
2022-07-28T23:20:39.340Z,101700.06
2022-07-28T23:23:06.579Z,101690.81
2022-07-28T23:25:35.901Z,101697.78
2022-07-28T23:28:03.579Z,101672.06
2022-07-28T23:30:30.309Z,101679.84
2022-07-28T23:32:57.176Z,101705.91
2022-07-28T23:35:24.195Z,101670.53
2022-07-28T23:37:50.846Z,101689.53
2022-07-28T23:40:17.895Z,101678.56
2022-07-28T23:42:44.753Z,101679.41
2022-07-28T23:45:11.774Z,101700.38
2022-07-28T23:47:38.525Z,101678.13
2022-07-28T23:50:05.964Z,101690.22
2022-07-28T23:52:32.865Z,101656.00
2022-07-28T23:54:59.554Z,101643.13
2022-07-28T23:57:30.749Z,101680.06
2022-07-28T23:59:58.957Z,101682.91
